createdAt,value
2019-04-05T00:03:56.677Z,9.38
2019-04-05T00:08:58.350Z,9.30
2019-04-05T00:14:00.124Z,10.38
2019-04-05T00:19:03.740Z,11.05
2019-04-05T00:24:05.511Z,11.70
2019-04-05T00:29:07.185Z,12.73
2019-04-05T00:34:08.958Z,11.38
2019-04-05T00:39:11.855Z,12.05
2019-04-05T00:44:13.628Z,12.88
2019-04-05T00:49:15.302Z,13.28
2019-04-05T00:54:17.075Z,13.15
2019-04-05T00:59:18.747Z,12.65
2019-04-05T01:04:20.555Z,13.35
2019-04-05T01:09:22.187Z,14.30
2019-04-05T01:14:23.963Z,14.45
2019-04-05T01:19:30.854Z,14.95
2019-04-05T01:24:32.832Z,15.95
2019-04-05T01:29:34.398Z,15.35
2019-04-05T01:34:36.071Z,15.70
2019-04-05T01:39:37.849Z,16.65
2019-04-05T01:44:39.620Z,17.52
2019-04-05T01:49:41.391Z,18.02
2019-04-05T01:54:43.167Z,18.48
2019-04-05T01:59:44.939Z,18.23
2019-04-05T02:04:46.709Z,19.15
2019-04-05T02:09:48.485Z,18.45
2019-04-05T02:14:50.256Z,18.20
2019-04-05T02:19:51.826Z,19.25
2019-04-05T02:24:53.496Z,19.82
2019-04-05T02:29:55.187Z,18.70
2019-04-05T02:34:56.840Z,19.82
2019-04-05T02:39:58.510Z,20.08
2019-04-05T02:45:00.282Z,20.20
2019-04-05T02:50:02.160Z,21.82
2019-04-05T02:55:04.333Z,20.88
2019-04-05T03:00:05.994Z,22.00
2019-04-05T03:05:07.848Z,21.48
2019-04-05T03:10:31.978Z,22.07
2019-04-05T03:15:33.642Z,21.93
2019-04-05T03:20:35.220Z,22.60
2019-04-05T03:25:36.772Z,22.13
2019-04-05T03:30:38.461Z,20.70
2019-04-05T03:35:40.104Z,21.12
2019-04-05T03:40:42.403Z,22.05
2019-04-05T03:45:43.976Z,22.42
2019-04-05T03:50:45.739Z,23.20
2019-04-05T03:55:48.031Z,23.83
2019-04-05T04:00:49.723Z,24.43
2019-04-05T04:05:51.685Z,27.17
2019-04-05T04:10:53.209Z,36.93
2019-04-05T04:15:54.864Z,32.85
2019-04-05T04:21:00.665Z,40.43
2019-04-05T04:26:02.222Z,39.70
2019-04-05T04:31:03.751Z,37.67
2019-04-05T04:36:05.517Z,40.58
2019-04-05T04:41:07.165Z,41.77
2019-04-05T04:46:08.834Z,47.83
2019-04-05T04:51:10.393Z,48.45
2019-04-05T04:56:11.969Z,50.17
2019-04-05T05:01:13.643Z,44.58
2019-04-05T05:06:15.311Z,51.48
2019-04-05T05:11:16.870Z,48.58
2019-04-05T05:16:18.455Z,38.23
2019-04-05T05:21:20.119Z,35.60
2019-04-05T05:26:21.649Z,35.65
2019-04-05T05:31:23.276Z,34.67
2019-04-05T05:36:24.811Z,34.15
2019-04-05T05:41:26.336Z,34.60
2019-04-05T05:46:27.910Z,34.98
2019-04-05T05:51:29.949Z,33.25
2019-04-05T05:56:31.507Z,34.25
2019-04-05T06:01:33.076Z,34.00
2019-04-05T06:06:34.644Z,36.45
2019-04-05T06:11:36.200Z,36.03
2019-04-05T06:16:46.180Z,34.48
2019-04-05T06:21:41.348Z,34.08
2019-04-05T06:26:42.927Z,34.45
2019-04-05T06:31:44.450Z,33.98
2019-04-05T06:36:45.983Z,32.85
2019-04-05T06:41:47.541Z,34.98
2019-04-05T06:46:49.146Z,32.35
2019-04-05T06:51:50.708Z,31.57
2019-04-05T06:56:52.242Z,33.13
2019-04-05T07:01:53.771Z,31.70
2019-04-05T07:06:55.303Z,31.65
2019-04-05T07:11:56.833Z,31.60
2019-04-05T07:16:58.406Z,32.38
2019-04-05T07:21:59.942Z,31.68
2019-04-05T07:27:01.576Z,30.60
2019-04-05T07:32:04.441Z,33.18
2019-04-05T07:37:06.049Z,31.52
2019-04-05T07:42:07.618Z,31.93
2019-04-05T07:47:09.293Z,31.82
2019-04-05T07:52:12.986Z,32.80
2019-04-05T07:57:14.260Z,33.33
2019-04-05T08:02:15.890Z,32.93
2019-04-05T08:07:17.526Z,31.68
2019-04-05T08:12:19.178Z,30.05
2019-04-05T08:17:20.814Z,33.20
2019-04-05T08:22:22.506Z,31.20
2019-04-05T08:27:24.088Z,32.05
2019-04-05T08:32:25.645Z,29.63
2019-04-05T08:37:27.197Z,31.97
2019-04-05T08:42:28.759Z,31.25
2019-04-05T08:47:30.454Z,31.00
2019-04-05T08:52:32.023Z,30.60
2019-04-05T08:57:33.559Z,32.03
2019-04-05T09:02:35.190Z,30.27
2019-04-05T09:07:36.847Z,31.75
2019-04-05T09:12:38.373Z,31.50
2019-04-05T09:17:40.080Z,31.25
2019-04-05T09:22:41.617Z,30.90
2019-04-05T09:27:43.246Z,30.00
2019-04-05T09:32:44.976Z,30.82
2019-04-05T09:37:46.957Z,32.42
2019-04-05T09:42:48.708Z,30.08
2019-04-05T09:47:50.308Z,30.02
2019-04-05T09:52:51.989Z,32.15
2019-04-05T09:57:53.643Z,30.10
2019-04-05T10:02:55.221Z,31.82
2019-04-05T10:07:56.781Z,30.43
2019-04-05T10:12:58.446Z,30.90
2019-04-05T10:18:00.130Z,31.50
2019-04-05T10:23:02.965Z,28.50
2019-04-05T10:28:04.606Z,30.60
2019-04-05T10:33:06.359Z,28.95
2019-04-05T10:38:07.891Z,29.07
2019-04-05T10:43:09.531Z,29.40
2019-04-05T10:48:11.088Z,28.60
2019-04-05T10:53:12.615Z,28.23
2019-04-05T10:58:14.174Z,29.77
2019-04-05T11:03:15.780Z,27.58
2019-04-05T11:08:17.412Z,26.70
2019-04-05T11:13:18.976Z,27.07
2019-04-05T11:18:20.544Z,25.97
2019-04-05T11:23:22.158Z,27.20
2019-04-05T11:28:23.692Z,28.07
2019-04-05T11:33:25.234Z,24.92
2019-04-05T11:38:26.784Z,26.40
2019-04-05T11:43:31.115Z,25.50
2019-04-05T11:48:31.827Z,25.32
2019-04-05T11:53:33.385Z,24.63
2019-04-05T11:58:34.951Z,26.15
2019-04-05T12:03:36.673Z,25.57
2019-04-05T12:08:38.219Z,23.18
2019-04-05T12:13:39.865Z,24.32
2019-04-05T12:18:41.458Z,24.55
2019-04-05T12:23:42.991Z,24.67
2019-04-05T12:28:44.699Z,23.60
2019-04-05T12:33:47.003Z,23.35
2019-04-05T12:38:48.772Z,25.32
2019-04-05T12:43:51.050Z,23.75
2019-04-05T12:48:52.813Z,26.62
2019-04-05T12:53:56.403Z,25.68
2019-04-05T12:58:57.997Z,28.57
2019-04-05T13:03:59.560Z,27.20
2019-04-05T13:09:01.089Z,28.70
2019-04-05T13:14:04.649Z,28.42
2019-04-05T13:19:06.183Z,28.73
2019-04-05T13:24:10.030Z,29.15
2019-04-05T13:29:11.155Z,27.45
2019-04-05T13:34:12.764Z,26.62
2019-04-05T13:39:14.350Z,28.75
2019-04-05T13:44:16.005Z,28.80
2019-04-05T13:49:17.569Z,28.00
2019-04-05T13:54:19.245Z,26.87
2019-04-05T13:59:20.768Z,28.42
2019-04-05T14:04:22.300Z,28.50
2019-04-05T14:09:23.848Z,29.05
2019-04-05T14:14:28.224Z,26.35
2019-04-05T14:19:29.059Z,28.17
2019-04-05T14:24:30.681Z,27.98
2019-04-05T14:29:33.794Z,29.48
2019-04-05T14:34:35.681Z,32.40
2019-04-05T14:39:37.457Z,30.82
2019-04-05T14:44:39.117Z,30.05
2019-04-05T14:49:40.757Z,29.40
2019-04-05T14:54:43.308Z,28.70
2019-04-05T14:59:45.597Z,30.32
2019-04-05T15:04:49.429Z,28.40
2019-04-05T15:09:54.780Z,31.23
2019-04-05T15:14:54.404Z,28.70
2019-04-05T15:19:56.044Z,29.45
2019-04-05T15:24:57.607Z,30.92
2019-04-05T15:30:00.410Z,28.05
2019-04-05T15:35:02.696Z,27.20
2019-04-05T15:40:05.965Z,24.52
2019-04-05T15:45:07.779Z,29.18
2019-04-05T15:50:09.551Z,28.80
2019-04-05T15:55:11.303Z,28.90
2019-04-05T16:00:17.588Z,25.68
2019-04-05T16:05:19.445Z,24.87
2019-04-05T16:10:21.086Z,28.45
2019-04-05T16:15:22.747Z,26.97
2019-04-05T16:20:25.502Z,26.40
2019-04-05T16:25:27.416Z,27.27
2019-04-05T16:30:29.068Z,31.55
2019-04-05T16:35:31.348Z,30.75
2019-04-05T16:40:33.024Z,29.07
2019-04-05T16:45:38.589Z,27.82
2019-04-05T16:50:42.290Z,29.55
2019-04-05T16:55:45.301Z,33.02
2019-04-05T17:00:46.975Z,34.50
2019-04-05T17:05:48.541Z,30.15
2019-04-05T17:10:51.330Z,28.80
2019-04-05T17:15:52.869Z,27.70
2019-04-05T17:20:54.403Z,29.50
2019-04-05T17:25:56.143Z,29.30
2019-04-05T17:30:57.816Z,28.75
2019-04-05T17:36:01.751Z,29.50
2019-04-05T17:41:03.715Z,28.90
2019-04-05T17:46:05.472Z,28.60
2019-04-05T17:51:07.009Z,27.40
2019-04-05T17:56:08.951Z,27.93
2019-04-05T18:01:11.195Z,26.45
2019-04-05T18:06:13.615Z,26.52
2019-04-05T18:11:15.250Z,26.23
2019-04-05T18:16:17.989Z,25.25
2019-04-05T18:21:20.740Z,26.52
2019-04-05T18:26:22.543Z,26.23
2019-04-05T18:31:24.841Z,22.98
2019-04-05T18:36:26.900Z,27.42
2019-04-05T18:41:29.718Z,24.50
2019-04-05T18:46:31.665Z,23.77
2019-04-05T18:51:33.985Z,24.80
2019-04-05T18:56:35.547Z,24.15
2019-04-05T19:01:37.441Z,22.62
2019-04-05T19:06:40.712Z,23.50
2019-04-05T19:11:42.700Z,24.10
2019-04-05T19:16:45.088Z,20.80
2019-04-05T19:21:48.311Z,21.02
2019-04-05T19:26:50.174Z,21.75
2019-04-05T19:52:06.289Z,20.57
2019-04-05T19:57:07.816Z,21.40
2019-04-05T20:02:09.545Z,20.48
2019-04-05T20:07:11.208Z,20.35
2019-04-05T20:12:12.875Z,19.98
2019-04-05T20:17:14.780Z,18.67
2019-04-05T20:22:16.459Z,20.43
2019-04-05T20:27:18.225Z,19.52
2019-04-05T20:32:19.773Z,19.45
2019-04-05T20:37:21.408Z,18.48
2019-04-05T20:42:23.153Z,20.80
2019-04-05T20:47:24.936Z,19.60
2019-04-05T20:52:26.764Z,22.80
2019-04-05T20:57:28.426Z,22.98
2019-04-05T21:02:29.991Z,23.15
2019-04-05T21:07:31.549Z,25.82
2019-04-05T21:12:33.244Z,23.12
2019-04-05T21:17:34.813Z,21.35
2019-04-05T21:22:36.456Z,22.48
2019-04-05T21:27:38.199Z,27.22
2019-04-05T21:32:39.872Z,27.80
2019-04-05T21:37:41.645Z,26.97
2019-04-05T21:42:43.318Z,27.52
2019-04-05T21:47:44.984Z,27.62
2019-04-05T21:52:46.759Z,29.98
2019-04-05T21:57:48.736Z,28.80
2019-04-05T22:02:50.632Z,27.42
2019-04-05T22:07:52.387Z,25.25
2019-04-05T22:12:55.196Z,24.45
2019-04-05T22:17:56.861Z,23.32
2019-04-05T22:22:58.736Z,21.68
2019-04-05T22:28:00.517Z,23.38
2019-04-05T22:33:02.315Z,21.70
2019-04-05T22:38:04.090Z,19.60
2019-04-05T22:43:05.831Z,18.95
2019-04-05T22:48:07.603Z,18.50
2019-04-05T22:53:09.380Z,18.48
2019-04-05T22:58:11.255Z,18.80
2019-04-05T23:03:13.025Z,18.90
2019-04-05T23:08:14.798Z,18.10
2019-04-05T23:13:16.571Z,17.25
2019-04-05T23:18:18.345Z,16.93
2019-04-05T23:23:20.120Z,16.05
2019-04-05T23:28:23.019Z,17.85
2019-04-05T23:33:24.792Z,16.20
2019-04-05T23:38:26.563Z,17.48
2019-04-05T23:43:28.350Z,15.75
2019-04-05T23:48:30.315Z,15.88
2019-04-05T23:53:32.089Z,15.60
2019-04-05T23:58:33.866Z,17.20
